Terminal Aerodrome Forecast
Issued by NWS

Current Version | Previous Version | Text Only | Print | Product List | Glossary On
Versions: 1 2 3 4 5 6 7 8 9 10 11 12 13 14 15 16 17 18 19 20
000
FTUS45 KABQ 200500
TAFFMN
TAF
KFMN 200538Z 2006/2106 VRB04KT P6SM SCT250
     FM200900 07005KT P6SM VCFG SCT005 BKN200
      TEMPO 2010/2014 2SM BR BKN004
     FM201700 28007KT P6SM BKN150=

USA.gov is the U.S. government's official web portal to all federal, state and local government web resources and services.